PAUNPFSH

Guest
Details From PAUN - Unalakleet
To PFSH - Shaktoolik New
Flight Number -
Tags generated
Created
Modified
Stats Distance 31 nm / 57 km
Max Altitude 400 ft / 122 m
Waypoints 3
Social Downloads 5
Likes 0
Share VATSIM

Download

Looking for another format? Having issues loading an existing format? Contact us
Advertisement - Login to hide

Notes

Basic altitude profile: - Ascent Rate: 2500ft/min - Ascent Speed: 250kts - Cruise Altitude: 35000ft - Cruise Speed: 420kts - Descent Rate: 1500ft/min - Descent Speed: 250kts Options: - Use NATs: yes - Use PACOTS: yes - Use low airways: yes - Use high airways: yes

Route

PAUN JNR PFSH

ID Type Via Altitude Latitude Longitude Leg Dist Tot Dist Heading (true) Name
O PAUN APT - 0 ft / 0 m 63.88659˚ -160.79693˚ - 0 nm - Unalakleet
JNR NDB - 400 ft / 122 m 63.90772˚ -160.81192˚ 1 nm 1 nm 343° / 343° NORTH RIVER NDB
O PFSH APT - 0 ft / 0 m 64.36688˚ -161.21329˚ 29 nm 30 nm 339° / 339° Shaktoolik New

Altitude Profile

Advertisement - Login to hide

PAUN

Details ICAO PAUN (UNK)
Name Unalakleet
Region USA (Alaska)
Timezone America/Anchorage (UTC-8.0)
Stats Elevation 68 ft / 21 m (AMSL)
Location 63.886590° -160.796931°
Runways 2
Magnetic Variation 12.027° E

METAR

PAUN 201156Z AUTO 07010KT 10SM SCT049 OVC055 07/06 A2963 RMK AO2 RAE32 SLP037 P0001 60007 70007 T00720061 10094 20067 58003

Decode

TAF

TAF PAUN 201120Z 2012/2112 06011KT P6SM -SHRA OVC035 FM201800 10009KT P6SM VCSH FEW035 SCT050 BKN100 FM210300 36005KT P6SM -SHRA BKN045

Decode

Departure Runways

ID Width Length Bearing (true) Bearing (mag) Surface Threshold Offset Overrun Length
15 151 ft / 46 m 5,990 ft / 1,826 m 164.15° 152.12° Asphalt 0 ft / 0 m 499 ft / 152 m
26 79 ft / 24 m 1,993 ft / 608 m 278.43° 266.40° Asphalt 0 ft / 0 m 0 ft / 0 m
33 151 ft / 46 m 5,990 ft / 1,826 m 344.16° 332.13° Asphalt 0 ft / 0 m 0 ft / 0 m
8 79 ft / 24 m 1,993 ft / 608 m 98.42° 86.39° Asphalt 0 ft / 0 m 0 ft / 0 m

PFSH

Details ICAO PFSH (SKK)
Name Shaktoolik New
Region USA (Alaska)
Timezone America/Anchorage (UTC-8.0)
Stats Elevation 24 ft / 7 m (AMSL)
Location 64.366878° -161.213287°
Runways 2
Magnetic Variation 11.870° E

METAR

PFSH 201156Z AUTO 12007KT 9SM BKN037 OVC048 06/05 A2963 RMK AO2 SLP033 60005 70005 T00610050 10089 20056 58004 PWINO

Decode

TAF

Not found

Destination Runways

ID Width Length Bearing (true) Bearing (mag) Surface Threshold Offset Overrun Length
14 75 ft / 23 m 4,006 ft / 1,221 m 157.61° 145.74° Gravel 0 ft / 0 m 0 ft / 0 m
15 43 ft / 13 m 2,227 ft / 679 m 170.05° 158.18° Dirt 0 ft / 0 m 0 ft / 0 m
32 75 ft / 23 m 4,006 ft / 1,221 m 337.62° 325.75° Gravel 0 ft / 0 m 0 ft / 0 m
33 43 ft / 13 m 2,227 ft / 679 m 350.06° 338.19° Dirt 0 ft / 0 m 0 ft / 0 m

Popular Alternatives